Time;durP1;ratioP1;P1;durP2;ratioP2;P2;SDS_P1;SDS_P2;PMS_P1;PMS_P2;Temp;Humidity;BMP_temperature;BMP_pressure;BME280_temperature;BME280_humidity;BME280_pressure;Samples;Min_cycle;Max_cycle;Signal;HPM_P1;HPM_P2
2021/12/08 00:00:42;;;;;;;8.82;4.82;;;;;;;3.43;100.00;99252.63;5085888;28;20032;-71
2021/12/08 00:03:09;;;;;;;12.03;4.03;;;;;;;3.44;100.00;99246.75;5087925;28;20063;-72
2021/12/08 00:05:36;;;;;;;6.00;3.88;;;;;;;3.48;100.00;99256.19;5088016;28;20057;-72
2021/12/08 00:08:03;;;;;;;13.00;5.03;;;;;;;3.54;100.00;99235.19;5088414;28;20023;-73
2021/12/08 00:10:52;;;;;;;13.55;4.90;;;;;;;3.50;100.00;99236.75;5087297;28;20097;-72
2021/12/08 00:13:15;;;;;;;12.18;5.15;;;;;;;3.55;100.00;99242.00;5088663;28;20494;-73
2021/12/08 00:15:45;;;;;;;10.68;4.68;;;;;;;3.56;100.00;99232.69;5089210;28;20036;-73
2021/12/08 00:18:16;;;;;;;9.55;4.40;;;;;;;3.58;100.00;99215.78;5085376;28;20085;-72
2021/12/08 00:20:43;;;;;;;9.73;4.07;;;;;;;3.67;100.00;99223.69;5084776;28;20077;-73
2021/12/08 00:23:09;;;;;;;8.35;4.07;;;;;;;3.73;100.00;99229.81;5086304;28;20028;-73
2021/12/08 00:25:36;;;;;;;7.78;3.92;;;;;;;3.74;100.00;99228.13;5090995;28;20036;-72
2021/12/08 00:28:03;;;;;;;7.75;4.03;;;;;;;3.82;100.00;99235.97;5084345;28;20050;-73
2021/12/08 00:30:29;;;;;;;13.20;4.32;;;;;;;3.83;100.00;99241.13;5087981;28;20057;-72
2021/12/08 00:32:57;;;;;;;8.32;3.80;;;;;;;3.87;100.00;99229.34;5087107;28;20024;-73
2021/12/08 00:35:23;;;;;;;9.75;3.92;;;;;;;3.91;100.00;99246.44;5089726;28;20040;-73
2021/12/08 00:37:49;;;;;;;6.85;3.15;;;;;;;3.94;100.00;99249.94;5086089;28;20063;-73
2021/12/08 00:40:17;;;;;;;8.82;4.10;;;;;;;3.99;100.00;99245.81;5086242;28;20048;-73
2021/12/08 00:42:44;;;;;;;9.93;3.83;;;;;;;4.01;100.00;99238.25;5084776;28;20498;-73
2021/12/08 00:45:12;;;;;;;11.65;3.90;;;;;;;4.04;100.00;99231.53;5084147;28;20043;-73
2021/12/08 00:47:38;;;;;;;8.77;3.50;;;;;;;4.11;100.00;99219.00;5084202;28;20115;-72
2021/12/08 00:50:08;;;;;;;8.63;3.33;;;;;;;4.12;100.00;99219.03;5086388;28;20063;-73
2021/12/08 00:52:33;;;;;;;8.32;3.70;;;;;;;4.19;100.00;99230.28;5084537;28;20455;-74
2021/12/08 00:55:00;;;;;;;11.43;3.90;;;;;;;4.23;100.00;99229.50;5089411;28;20043;-73
2021/12/08 00:57:26;;;;;;;6.45;3.70;;;;;;;4.38;100.00;99244.34;5087602;28;20462;-73
2021/12/08 00:59:51;;;;;;;6.30;3.30;;;;;;;4.37;100.00;99240.94;5086658;28;20043;-74
2021/12/08 01:02:17;;;;;;;7.20;3.63;;;;;;;4.44;100.00;99249.59;5083611;28;20371;-73
2021/12/08 01:04:42;;;;;;;7.47;3.30;;;;;;;4.44;100.00;99254.69;5087593;28;20126;-72
2021/12/08 01:07:08;;;;;;;7.28;3.33;;;;;;;4.48;100.00;99261.56;5090691;28;20375;-72
2021/12/08 01:09:34;;;;;;;5.85;3.30;;;;;;;4.56;100.00;99248.22;5087871;28;20027;-72
2021/12/08 01:12:01;;;;;;;5.75;2.50;;;;;;;4.63;100.00;99272.16;5089928;28;20052;-73
2021/12/08 01:14:32;;;;;;;6.43;3.10;;;;;;;4.62;100.00;99272.13;5087345;28;20385;-73
2021/12/08 01:16:58;;;;;;;6.47;3.17;;;;;;;4.61;100.00;99260.19;5091129;28;20028;-73
2021/12/08 01:19:24;;;;;;;6.65;2.42;;;;;;;4.67;100.00;99260.34;5083899;28;20035;-73
2021/12/08 01:21:50;;;;;;;5.63;2.50;;;;;;;4.75;100.00;99264.84;5084711;28;20032;-72
2021/12/08 01:24:16;;;;;;;8.00;2.70;;;;;;;4.75;100.00;99277.56;5088195;28;20042;-71
2021/12/08 01:26:42;;;;;;;4.43;2.28;;;;;;;4.75;100.00;99271.63;5086837;28;20103;-73
2021/12/08 01:29:08;;;;;;;6.88;2.28;;;;;;;4.76;100.00;99265.69;5086327;28;20059;-71
2021/12/08 01:31:39;;;;;;;5.53;2.53;;;;;;;4.81;100.00;99269.22;5086031;28;20089;-71
2021/12/08 01:34:05;;;;;;;5.78;2.40;;;;;;;4.76;100.00;99274.19;5088410;28;20040;-72
2021/12/08 01:36:30;;;;;;;5.88;2.13;;;;;;;4.81;100.00;99266.69;5083250;28;20016;-71
2021/12/08 01:38:56;;;;;;;4.28;2.42;;;;;;;4.84;100.00;99280.34;5089006;28;20483;-73
2021/12/08 01:41:23;;;;;;;6.70;2.42;;;;;;;4.82;100.00;99274.34;5086785;28;20078;-72
2021/12/08 01:46:47;;;;;;;4.53;2.38;;;;;;;4.95;100.00;99283.16;5053327;28;20127;-74
2021/12/08 01:49:13;;;;;;;7.40;2.03;;;;;;;4.96;100.00;99287.44;5087763;28;20131;-73
2021/12/08 01:51:39;;;;;;;6.78;2.38;;;;;;;4.99;100.00;99289.22;5085415;28;20040;-74
2021/12/08 01:54:05;;;;;;;5.40;2.58;;;;;;;4.99;100.00;99291.75;5086623;28;20036;-74
2021/12/08 01:56:32;;;;;;;7.57;2.63;;;;;;;5.00;100.00;99291.78;5092207;28;20036;-72
2021/12/08 01:58:58;;;;;;;3.53;2.10;;;;;;;4.95;100.00;99290.81;5092627;28;20024;-73
2021/12/08 02:01:27;;;;;;;6.10;2.38;;;;;;;5.02;100.00;99287.59;5088173;28;20551;-73
2021/12/08 02:03:52;;;;;;;9.40;2.87;;;;;;;5.02;100.00;99294.38;5085796;28;20035;-73
2021/12/08 02:06:19;;;;;;;10.40;2.70;;;;;;;5.01;100.00;99303.69;5087156;28;20298;-73
2021/12/08 02:08:47;;;;;;;10.63;3.22;;;;;;;5.01;100.00;99302.84;5086998;28;20147;-74
2021/12/08 02:11:13;;;;;;;10.75;2.70;;;;;;;4.96;100.00;99307.81;5084148;28;20040;-73
2021/12/08 02:13:40;;;;;;;8.98;2.78;;;;;;;5.06;100.00;99307.22;5087370;28;20035;-72
2021/12/08 02:16:10;;;;;;;9.93;2.70;;;;;;;4.98;100.00;99310.41;5089065;28;20073;-73
2021/12/08 02:18:36;;;;;;;8.90;2.33;;;;;;;5.00;100.00;99314.72;5091803;28;20032;-73
2021/12/08 02:21:05;;;;;;;9.15;2.80;;;;;;;5.05;100.00;99308.06;5092408;28;20043;-74
2021/12/08 02:23:31;;;;;;;10.65;2.50;;;;;;;5.00;100.00;99318.94;5090385;28;20032;-73
2021/12/08 02:25:58;;;;;;;11.35;2.67;;;;;;;4.97;100.00;99318.84;5090938;28;20020;-73
2021/12/08 02:28:24;;;;;;;8.82;2.63;;;;;;;5.00;100.00;99326.59;5087903;28;20024;-73
2021/12/08 02:30:56;;;;;;;9.55;3.15;;;;;;;5.02;100.00;99330.03;5091821;28;20036;-73
2021/12/08 02:47:17;;;;;;;11.90;2.95;;;;;;;4.78;100.00;99343.84;5092671;28;20066;-72
2021/12/08 02:49:43;;;;;;;9.48;2.67;;;;;;;4.78;100.00;99338.75;5090931;28;20062;-71
2021/12/08 02:52:12;;;;;;;12.50;2.80;;;;;;;4.80;100.00;99356.66;5088377;28;20498;-71
2021/12/08 02:54:42;;;;;;;12.40;3.13;;;;;;;4.77;100.00;99354.84;5087945;28;20024;-71
2021/12/08 02:57:08;;;;;;;7.63;2.53;;;;;;;4.78;100.00;99348.94;5086202;28;20024;-71
2021/12/08 02:59:35;;;;;;;8.70;2.38;;;;;;;4.77;100.00;99344.66;5091910;27;20027;-71
2021/12/08 03:02:00;;;;;;;7.07;2.20;;;;;;;4.91;100.00;99356.91;5089382;28;20093;-71
2021/12/08 03:04:26;;;;;;;5.68;2.20;;;;;;;4.90;100.00;99347.53;5084588;28;20107;-72
2021/12/08 03:06:51;;;;;;;9.48;2.17;;;;;;;4.88;100.00;99344.09;5087083;28;20028;-71
2021/12/08 03:09:17;;;;;;;9.35;2.42;;;;;;;4.87;100.00;99352.56;5085608;28;20028;-71
2021/12/08 03:11:42;;;;;;;12.45;2.80;;;;;;;4.84;100.00;99338.06;5088567;28;20028;-72
2021/12/08 03:14:12;;;;;;;9.88;2.75;;;;;;;4.81;100.00;99341.41;5085106;28;20040;-72
2021/12/08 03:16:44;;;;;;;7.70;2.70;;;;;;;4.86;100.00;99340.66;5085705;28;20024;-73
2021/12/08 03:19:09;;;;;;;5.97;2.22;;;;;;;4.84;100.00;99351.66;5084117;28;20028;-71
2021/12/08 03:21:35;;;;;;;9.75;2.17;;;;;;;4.90;100.00;99365.38;5086306;28;20047;-71
2021/12/08 03:24:18;;;;;;;11.43;2.65;;;;;;;4.86;100.00;99368.69;5088631;28;20035;-71
2021/12/08 03:26:50;;;;;;;12.63;2.22;;;;;;;4.83;100.00;99366.91;5087619;28;20028;-73
2021/12/08 03:29:44;;;;;;;10.25;2.58;;;;;;;4.89;100.00;99366.19;5087105;28;20035;-72
2021/12/08 03:32:15;;;;;;;9.73;2.20;;;;;;;4.83;100.00;99377.94;5088094;28;20035;-73
2021/12/08 03:34:52;;;;;;;11.80;2.25;;;;;;;4.85;100.00;99380.53;5086844;28;20032;-72
2021/12/08 03:37:25;;;;;;;11.63;2.30;;;;;;;4.91;100.00;99380.69;5087187;28;20496;-72
2021/12/08 03:39:51;;;;;;;11.15;2.20;;;;;;;4.79;100.00;99365.97;5088919;28;20477;-71
2021/12/08 03:42:23;;;;;;;7.28;1.98;;;;;;;4.70;100.00;99372.47;5088067;28;20076;-72
2021/12/08 03:44:50;;;;;;;8.45;2.20;;;;;;;4.65;100.00;99368.94;5091316;28;20020;-72
2021/12/08 03:47:18;;;;;;;15.70;2.85;;;;;;;4.65;100.00;99359.63;5089345;28;20115;-72
2021/12/08 03:49:45;;;;;;;8.25;2.33;;;;;;;4.61;100.00;99373.09;5085947;28;20078;-70
2021/12/08 03:52:11;;;;;;;12.35;2.60;;;;;;;4.64;100.00;99374.84;5087400;28;20032;-71
2021/12/08 03:54:37;;;;;;;8.27;2.00;;;;;;;4.53;100.00;99372.88;5089201;28;20471;-70
2021/12/08 03:57:04;;;;;;;7.13;2.05;;;;;;;4.48;100.00;99379.50;5090026;28;20040;-73
2021/12/08 03:59:30;;;;;;;8.68;2.13;;;;;;;4.41;100.00;99377.59;5088225;28;20024;-70
2021/12/08 04:01:55;;;;;;;13.13;2.45;;;;;;;4.37;100.00;99386.00;5092914;28;20386;-70
2021/12/08 04:04:26;;;;;;;9.55;1.95;;;;;;;4.32;100.00;99384.13;5088262;28;20043;-70
2021/12/08 04:06:53;;;;;;;6.57;1.70;;;;;;;4.22;100.00;99382.97;5089343;28;20078;-72
2021/12/08 04:09:39;;;;;;;7.68;1.67;;;;;;;4.17;100.00;99395.56;5090105;28;20180;-71
2021/12/08 04:12:05;;;;;;;8.77;1.80;;;;;;;4.05;100.00;99387.56;5085498;28;20023;-73
2021/12/08 04:14:36;;;;;;;12.57;2.15;;;;;;;4.11;100.00;99390.28;5083962;28;20032;-71
2021/12/08 04:17:07;;;;;;;8.07;1.58;;;;;;;4.00;100.00;99389.09;5089557;28;20081;-72
2021/12/08 04:19:33;;;;;;;11.85;2.03;;;;;;;3.95;100.00;99398.28;5088092;28;20035;-71
2021/12/08 04:22:05;;;;;;;9.35;1.50;;;;;;;3.89;100.00;99401.50;5087648;28;20020;-72
2021/12/08 04:24:31;;;;;;;10.00;1.60;;;;;;;3.83;100.00;99395.38;5086758;28;20450;-72
2021/12/08 04:27:07;;;;;;;11.93;1.80;;;;;;;3.81;100.00;99407.16;5088400;28;20069;-72
2021/12/08 04:29:36;;;;;;;11.95;2.08;;;;;;;3.75;100.00;99403.59;5087422;28;20442;-72
2021/12/08 04:32:03;;;;;;;16.90;2.20;;;;;;;3.68;100.00;99414.38;5089245;28;20028;-74
2021/12/08 04:34:33;;;;;;;11.65;2.05;;;;;;;3.70;100.00;99407.69;5087066;28;20058;-73
2021/12/08 04:37:03;;;;;;;5.22;1.60;;;;;;;3.66;100.00;99408.41;5086856;28;20028;-71
2021/12/08 04:39:44;;;;;;;11.82;1.75;;;;;;;3.69;100.00;99411.03;5086489;28;20032;-71
2021/12/08 04:42:14;;;;;;;11.32;1.75;;;;;;;3.72;100.00;99411.13;5086959;28;20494;-71
2021/12/08 04:44:48;;;;;;;7.13;2.20;;;;;;;3.68;100.00;99416.06;5087760;28;20123;-71
2021/12/08 04:52:44;;;;;;;8.48;1.90;;;;;;;3.56;100.00;99393.66;5087089;28;20108;-70
2021/12/08 05:06:49;;;;;;;8.30;1.60;;;;;;;3.59;100.00;99423.41;5089779;28;20123;-71
2021/12/08 05:09:24;;;;;;;8.00;1.45;;;;;;;3.49;100.00;99437.47;5089503;28;20082;-72
2021/12/08 05:12:08;;;;;;;8.60;1.80;;;;;;;3.42;100.00;99438.09;5085399;28;20063;-71
2021/12/08 05:14:45;;;;;;;8.38;1.60;;;;;;;3.44;100.00;99439.00;5086666;28;20028;-70
2021/12/08 05:17:20;;;;;;;6.55;1.50;;;;;;;3.43;100.00;99439.81;5086749;28;20024;-70
2021/12/08 05:19:49;;;;;;;7.50;2.03;;;;;;;3.42;100.00;99453.34;5086756;28;20027;-70
2021/12/08 05:22:21;;;;;;;8.80;1.93;;;;;;;3.44;100.00;99426.28;5085358;28;20079;-71
2021/12/08 05:24:50;;;;;;;17.98;2.08;;;;;;;3.48;100.00;99433.22;5084905;28;20117;-72
2021/12/08 05:27:21;;;;;;;9.20;1.50;;;;;;;3.47;100.00;99441.66;5085450;28;20043;-72
2021/12/08 05:29:51;;;;;;;14.43;2.10;;;;;;;3.53;100.00;99431.69;5088065;28;20023;-70
2021/12/08 05:32:18;;;;;;;8.75;1.65;;;;;;;3.44;100.00;99431.38;5089036;28;20031;-73
2021/12/08 05:34:43;;;;;;;8.60;1.70;;;;;;;3.46;100.00;99440.78;5085887;28;20090;-72
2021/12/08 05:37:14;;;;;;;9.05;1.88;;;;;;;3.43;100.00;99440.69;5090634;28;20086;-70
2021/12/08 05:39:40;;;;;;;13.02;2.20;;;;;;;3.38;100.00;99443.88;5090154;28;20425;-70
2021/12/08 05:42:10;;;;;;;10.52;1.88;;;;;;;3.42;100.00;99441.50;5091797;28;20052;-71
2021/12/08 05:44:36;;;;;;;;;;;;;;;3.43;100.00;99448.28;5088778;28;20094;-72
2021/12/08 05:47:05;;;;;;;8.57;1.50;;;;;;;3.42;100.00;99450.78;5091690;28;19920;-71
2021/12/08 05:49:31;;;;;;;10.65;1.60;;;;;;;3.35;100.00;99452.25;5090734;28;20024;-73
2021/12/08 05:51:57;;;;;;;8.88;1.35;;;;;;;3.25;100.00;99451.88;5092085;28;20040;-70
2021/12/08 05:54:32;;;;;;;11.00;1.45;;;;;;;3.34;100.00;99457.31;5092849;28;21639;-71
2021/12/08 05:57:04;;;;;;;11.23;1.48;;;;;;;3.26;100.00;99463.78;5089912;28;20082;-73
2021/12/08 05:59:31;;;;;;;5.70;1.13;;;;;;;3.41;100.00;99454.16;5092300;28;20028;-71
2021/12/08 06:02:01;;;;;;;9.88;2.00;;;;;;;3.21;100.00;99461.06;5092229;28;20027;-71
2021/12/08 06:04:29;;;;;;;11.40;1.88;;;;;;;3.27;100.00;99468.91;5091397;28;20030;-71
2021/12/08 06:06:55;;;;;;;6.18;1.40;;;;;;;3.22;100.00;99461.16;5087250;28;20059;-71
2021/12/08 06:09:23;;;;;;;12.40;1.75;;;;;;;3.14;100.00;99477.78;5095266;28;20065;-71
2021/12/08 06:11:51;;;;;;;13.45;1.80;;;;;;;3.26;100.00;99477.34;5090165;28;20032;-71
2021/12/08 06:14:19;;;;;;;18.13;1.98;;;;;;;3.22;100.00;99486.53;5089804;28;20537;-71
2021/12/08 06:16:47;;;;;;;9.10;1.75;;;;;;;3.33;100.00;99475.88;5090551;28;20534;-71
2021/12/08 06:19:14;;;;;;;15.40;1.80;;;;;;;3.30;100.00;99480.88;5086892;28;20131;-72
2021/12/08 06:21:41;;;;;;;12.63;1.52;;;;;;;3.36;100.00;99497.19;5089841;28;20020;-70
2021/12/08 06:24:09;;;;;;;11.18;2.08;;;;;;;3.26;100.00;99497.66;5089007;28;20058;-71
2021/12/08 06:26:35;;;;;;;16.73;1.70;;;;;;;3.31;100.00;99505.47;5083468;28;20486;-72
2021/12/08 06:29:03;;;;;;;9.65;1.75;;;;;;;3.26;100.00;99509.50;5090053;28;20016;-70
2021/12/08 06:31:29;;;;;;;15.90;1.88;;;;;;;3.26;100.00;99509.50;5089867;28;20123;-71
2021/12/08 06:33:56;;;;;;;10.23;2.13;;;;;;;3.20;100.00;99508.47;5085366;28;20028;-73
2021/12/08 06:36:27;;;;;;;8.60;2.20;;;;;;;3.20;100.00;99508.47;5079789;28;20028;-70
2021/12/08 06:38:53;;;;;;;15.55;1.90;;;;;;;3.28;100.00;99529.09;5082993;28;20038;-71
2021/12/08 06:41:31;;;;;;;14.63;2.53;;;;;;;3.25;100.00;99518.81;5091058;28;20040;-71
2021/12/08 06:44:02;;;;;;;9.50;1.70;;;;;;;3.14;100.00;99518.41;5086865;28;20046;-70
2021/12/08 06:46:27;;;;;;;7.95;1.55;;;;;;;3.14;100.00;99518.41;5083092;28;20035;-71
2021/12/08 06:48:55;;;;;;;7.65;1.40;;;;;;;3.10;100.00;99516.59;5082695;28;20039;-71
2021/12/08 06:51:31;;;;;;;13.95;1.65;;;;;;;3.13;100.00;99515.81;5083520;28;20701;-72
2021/12/08 06:54:02;;;;;;;16.83;2.90;;;;;;;3.05;100.00;99530.78;5084634;28;20035;-72
2021/12/08 06:56:32;;;;;;;16.73;2.33;;;;;;;2.98;100.00;99523.75;5084641;28;20093;-73
2021/12/08 06:59:03;;;;;;;13.02;2.10;;;;;;;3.03;100.00;99529.00;5079952;28;20056;-71
2021/12/08 07:07:00;;;;;;;11.13;1.92;;;;;;;2.95;100.00;99519.41;5083263;28;20032;-70
2021/12/08 07:09:40;;;;;;;13.20;1.80;;;;;;;2.91;100.00;99525.22;5087103;28;20031;-71
2021/12/08 07:12:20;;;;;;;12.00;2.40;;;;;;;2.92;100.00;99532.03;5083936;28;20081;-71
2021/12/08 07:14:53;;;;;;;7.28;1.40;;;;;;;3.06;100.00;99539.28;5087890;28;20056;-70
2021/12/08 07:17:22;;;;;;;10.98;1.65;;;;;;;3.03;100.00;99544.22;5083337;28;20031;-72
2021/12/08 07:20:03;;;;;;;9.60;1.45;;;;;;;2.96;100.00;99553.28;5083198;28;20054;-71
2021/12/08 07:22:30;;;;;;;14.27;1.67;;;;;;;2.92;100.00;99554.00;5084717;28;20028;-71
2021/12/08 07:24:59;;;;;;;12.25;2.20;;;;;;;2.95;100.00;99554.09;5084175;28;20050;-70
2021/12/08 07:27:29;;;;;;;19.70;1.92;;;;;;;2.89;100.00;99572.50;5084342;28;20092;-71
2021/12/08 07:29:58;;;;;;;13.65;1.60;;;;;;;2.90;100.00;99575.91;5085180;28;20016;-72
2021/12/08 07:32:29;;;;;;;12.48;1.88;;;;;;;2.85;100.00;99579.94;5086695;28;20027;-70
2021/12/08 07:34:58;;;;;;;9.18;2.00;;;;;;;2.89;100.00;99587.75;5088535;28;20020;-70
2021/12/08 07:37:29;;;;;;;9.65;1.40;;;;;;;2.93;100.00;99582.00;5082895;28;20028;-70
2021/12/08 07:40:03;;;;;;;15.63;2.47;;;;;;;2.89;100.00;99600.44;5076819;28;21518;-71
2021/12/08 07:42:42;;;;;;;11.00;1.90;;;;;;;2.85;100.00;99615.50;5080861;28;20055;-71
2021/12/08 07:45:13;;;;;;;16.02;2.22;;;;;;;2.96;100.00;99609.16;5087358;28;20032;-70
2021/12/08 07:47:39;;;;;;;8.77;1.65;;;;;;;2.99;100.00;99603.34;5082750;28;20391;-73
2021/12/08 07:50:27;;;;;;;8.38;1.85;;;;;;;2.90;100.00;99606.38;5086003;28;20465;-73
2021/12/08 07:52:54;;;;;;;11.98;1.67;;;;;;;2.90;100.00;99609.78;5083725;28;20032;-73
2021/12/08 07:55:26;;;;;;;7.20;1.48;;;;;;;2.91;100.00;99603.94;5086071;28;20490;-71
2021/12/08 07:57:53;;;;;;;11.23;1.77;;;;;;;2.91;100.00;99598.84;5080005;28;20031;-71
2021/12/08 08:00:27;;;;;;;17.58;2.40;;;;;;;3.07;100.00;99599.41;5086944;28;20027;-72
2021/12/08 08:02:54;;;;;;;8.23;1.45;;;;;;;3.04;100.00;99601.84;5084286;28;20020;-72
2021/12/08 08:05:22;;;;;;;7.00;1.75;;;;;;;3.13;100.00;99587.81;5082992;28;20024;-71
2021/12/08 08:07:49;;;;;;;10.40;1.42;;;;;;;3.15;100.00;99598.00;5083462;28;20410;-69
2021/12/08 08:10:16;;;;;;;6.63;1.58;;;;;;;3.36;98.83;99591.19;5080569;28;20035;-73
2021/12/08 08:12:47;;;;;;;7.68;1.55;;;;;;;3.41;98.73;99604.06;5083346;28;20024;-71
2021/12/08 08:15:20;;;;;;;11.00;1.75;;;;;;;3.41;98.63;99609.16;5085615;28;20028;-71
2021/12/08 08:17:49;;;;;;;7.22;1.70;;;;;;;3.46;98.85;99607.66;5079568;28;20020;-72
2021/12/08 08:20:21;;;;;;;9.02;1.63;;;;;;;3.46;99.04;99616.13;5083761;28;20027;-70
2021/12/08 08:22:47;;;;;;;9.20;1.60;;;;;;;3.51;98.51;99618.81;5082818;28;20031;-70
2021/12/08 08:25:15;;;;;;;9.13;1.85;;;;;;;3.50;98.35;99601.84;5087340;28;20020;-70
2021/12/08 08:27:41;;;;;;;8.15;1.80;;;;;;;3.54;97.91;99600.28;5082936;28;20127;-71
2021/12/08 08:30:12;;;;;;;8.10;1.70;;;;;;;3.49;98.36;99602.66;5083913;28;20127;-72
2021/12/08 08:32:40;;;;;;;14.48;1.98;;;;;;;3.69;94.99;99606.78;5097766;28;20406;-72
2021/12/08 08:35:12;;;;;;;11.20;1.55;;;;;;;3.72;94.50;99595.88;5086965;28;20035;-72
2021/12/08 08:37:38;;;;;;;10.25;1.98;;;;;;;3.63;95.77;99595.53;5083412;28;20125;-72
2021/12/08 08:40:10;;;;;;;9.10;1.40;;;;;;;3.60;96.09;99585.25;5081834;28;20038;-73
2021/12/08 08:42:40;;;;;;;13.52;1.40;;;;;;;3.69;94.43;99583.88;5083125;28;20460;-73
2021/12/08 08:45:35;;;;;;;5.00;1.35;;;;;;;3.74;94.50;99595.09;5085803;28;20032;-73
2021/12/08 08:48:26;;;;;;;11.43;2.10;;;;;;;3.75;95.52;99590.88;5085026;28;20046;-73
2021/12/08 08:51:11;;;;;;;6.03;1.50;;;;;;;3.93;94.22;99583.00;5082011;28;20409;-73
2021/12/08 08:53:40;;;;;;;8.25;1.52;;;;;;;4.32;90.92;99572.44;5080679;28;20043;-73
2021/12/08 08:56:19;;;;;;;13.82;1.67;;;;;;;4.47;91.02;99578.88;5079900;28;20020;-74
2021/12/08 08:58:49;;;;;;;6.18;1.30;;;;;;;4.63;89.65;99587.88;5086774;28;20024;-73
2021/12/08 09:01:22;;;;;;;8.30;1.98;;;;;;;4.68;89.15;99596.50;5083514;28;20028;-72
2021/12/08 09:03:55;;;;;;;5.68;1.65;;;;;;;4.92;89.25;99605.72;5084538;28;20189;-72
2021/12/08 09:06:31;;;;;;;8.77;1.77;;;;;;;5.58;85.79;99613.59;5090058;28;20035;-73
2021/12/08 09:08:58;;;;;;;7.43;1.60;;;;;;;6.28;83.21;99607.84;5090161;28;20011;-72
2021/12/08 09:11:29;;;;;;;10.73;1.60;;;;;;;6.92;80.57;99605.97;5086772;28;20390;-73
2021/12/08 09:14:05;;;;;;;7.40;1.35;;;;;;;7.54;78.76;99601.31;5083967;28;20535;-73
2021/12/08 09:16:36;;;;;;;8.32;3.00;;;;;;;7.99;74.35;99597.91;5086997;28;20502;-72
2021/12/08 09:19:10;;;;;;;5.82;1.75;;;;;;;8.42;72.45;99609.78;5086813;28;20028;-73
2021/12/08 09:21:47;;;;;;;7.20;1.45;;;;;;;9.25;72.25;99605.91;5085593;28;20489;-72
2021/12/08 09:24:21;;;;;;;9.07;1.40;;;;;;;9.24;70.81;99607.59;5084637;28;20024;-72
2021/12/08 09:26:56;;;;;;;8.93;1.35;;;;;;;9.35;69.30;99613.75;5089304;28;20363;-73
2021/12/08 09:29:27;;;;;;;6.75;1.55;;;;;;;9.58;67.48;99619.13;5085089;28;20035;-73
2021/12/08 09:32:08;;;;;;;8.05;1.48;;;;;;;9.33;68.27;99620.53;5084186;28;20028;-74
2021/12/08 09:34:45;;;;;;;10.07;1.70;;;;;;;9.39;68.25;99630.03;5087550;28;20584;-74
2021/12/08 09:37:15;;;;;;;7.93;1.33;;;;;;;9.75;66.46;99626.19;5086009;28;20020;-73
2021/12/08 09:40:05;;;;;;;7.07;1.70;;;;;;;9.34;65.82;99634.22;5086190;28;20039;-73
2021/12/08 09:42:39;;;;;;;9.60;1.35;;;;;;;8.67;68.79;99638.38;5088018;28;20039;-72
2021/12/08 09:45:17;;;;;;;4.75;1.17;;;;;;;8.04;70.97;99645.78;5085176;28;20048;-72
2021/12/08 09:47:42;;;;;;;4.18;1.30;;;;;;;7.78;70.82;99636.78;5089831;28;20072;-72
2021/12/08 09:50:11;;;;;;;5.05;1.20;;;;;;;8.55;71.37;99628.78;5084803;28;20036;-72
2021/12/08 09:52:37;;;;;;;9.35;1.30;;;;;;;9.73;65.41;99620.19;5085296;28;20143;-72
2021/12/08 09:55:05;;;;;;;4.40;1.10;;;;;;;10.48;62.66;99622.69;5087290;28;20051;-72
2021/12/08 09:57:31;;;;;;;8.32;1.48;;;;;;;11.15;61.18;99622.31;5086434;28;20455;-70
2021/12/08 09:59:56;;;;;;;7.88;1.40;;;;;;;12.05;57.65;99608.97;5087948;28;20107;-73
2021/12/08 10:02:33;;;;;;;8.13;1.25;;;;;;;12.47;57.49;99602.16;5087632;28;20386;-70
2021/12/08 10:05:03;;;;;;;5.88;1.20;;;;;;;12.25;55.91;99586.66;5085277;28;20109;-71
2021/12/08 10:07:29;;;;;;;5.82;1.20;;;;;;;12.24;54.21;99595.25;5088461;28;20038;-71
2021/12/08 10:09:55;;;;;;;5.57;1.65;;;;;;;12.60;54.49;99593.53;5084435;28;20395;-71
2021/12/08 10:12:21;;;;;;;5.30;1.30;;;;;;;12.59;54.35;99596.97;5088664;28;20053;-70
2021/12/08 10:14:47;;;;;;;6.25;1.30;;;;;;;13.12;52.46;99599.50;5087676;28;20042;-72
2021/12/08 10:17:14;;;;;;;5.55;1.30;;;;;;;13.01;51.85;99584.91;5087826;28;20028;-71
2021/12/08 10:19:42;;;;;;;6.68;1.27;;;;;;;13.09;51.61;99583.16;5082959;28;20109;-70
2021/12/08 10:22:21;;;;;;;5.18;1.60;;;;;;;13.66;51.96;99582.13;5084708;28;20910;-71
2021/12/08 10:25:08;;;;;;;5.35;1.63;;;;;;;14.06;52.30;99579.28;5087369;28;20108;-70
2021/12/08 10:28:02;;;;;;;8.07;1.63;;;;;;;14.43;53.06;99586.78;5084594;28;20055;-71
2021/12/08 10:30:27;;;;;;;7.72;2.35;;;;;;;14.63;47.46;99571.16;5085125;28;20037;-73
2021/12/08 10:32:54;;;;;;;4.97;1.15;;;;;;;14.47;47.19;99580.75;5085751;28;20024;-73
2021/12/08 10:35:48;;;;;;;9.52;2.03;;;;;;;14.38;51.39;99568.72;5085403;28;20055;-71
2021/12/08 10:38:16;;;;;;;7.32;1.40;;;;;;;14.68;47.02;99569.34;5077136;28;20332;-69
2021/12/08 10:41:05;;;;;;;7.57;1.30;;;;;;;15.10;48.03;99559.44;5084174;28;20016;-71
2021/12/08 10:43:30;;;;;;;4.82;1.38;;;;;;;15.17;46.15;99559.38;5084456;28;20036;-72
2021/12/08 10:46:11;;;;;;;9.30;1.63;;;;;;;15.61;46.87;99551.94;5086134;28;20032;-71
2021/12/08 10:48:43;;;;;;;3.90;1.27;;;;;;;15.84;45.89;99557.69;5084792;28;20082;-70
2021/12/08 10:54:30;;;;;;;4.35;1.48;;;;;;;15.72;45.31;99557.84;5083618;28;20063;-71
2021/12/08 10:56:57;;;;;;;6.05;1.27;;;;;;;14.40;45.73;99571.31;5085660;28;20522;-73
2021/12/08 10:59:47;;;;;;;5.03;1.25;;;;;;;14.18;49.52;99570.59;5082983;28;20086;-71
2021/12/08 11:02:38;;;;;;;6.68;1.65;;;;;;;13.79;49.33;99572.56;5084581;28;20438;-73
2021/12/08 11:05:26;;;;;;;4.20;1.15;;;;;;;13.75;49.53;99586.38;5080306;28;20089;-72
2021/12/08 11:08:08;;;;;;;4.57;1.50;;;;;;;14.75;48.19;99584.81;5085962;28;20031;-71
2021/12/08 11:10:41;;;;;;;5.03;1.33;;;;;;;15.28;47.84;99592.88;5083335;28;20036;-70
2021/12/08 11:13:08;;;;;;;5.45;1.27;;;;;;;15.16;44.70;99593.03;5082400;28;20043;-73
2021/12/08 11:15:35;;;;;;;5.38;1.40;;;;;;;15.14;44.37;99603.41;5081890;28;20060;-69
2021/12/08 11:18:11;;;;;;;6.07;1.20;;;;;;;14.88;46.55;99613.19;5083915;28;20036;-71
2021/12/08 11:20:45;;;;;;;6.10;1.23;;;;;;;13.74;49.12;99609.63;5081722;28;20031;-72
2021/12/08 11:23:15;;;;;;;5.05;1.42;;;;;;;12.26;51.55;99626.19;5084294;28;20040;-70
2021/12/08 11:25:50;;;;;;;3.88;1.10;;;;;;;11.25;55.37;99629.22;5086215;28;20028;-72
2021/12/08 11:28:24;;;;;;;4.75;1.15;;;;;;;10.43;57.02;99637.22;5062240;28;20490;-71
2021/12/08 11:30:51;;;;;;;7.07;1.58;;;;;;;9.42;60.13;99639.47;5082396;28;20054;-71
2021/12/08 11:33:23;;;;;;;7.35;1.80;;;;;;;8.98;62.54;99645.72;5084507;28;20032;-72
2021/12/08 11:36:07;;;;;;;6.88;1.35;;;;;;;8.77;63.15;99648.78;5082431;28;20020;-71
2021/12/08 11:38:33;;;;;;;13.70;2.00;;;;;;;8.32;65.89;99648.88;5083146;28;20040;-72
2021/12/08 11:40:59;;;;;;;6.90;1.50;;;;;;;8.25;67.27;99649.56;5084291;28;20467;-72
2021/12/08 11:43:30;;;;;;;6.68;1.30;;;;;;;8.36;67.87;99642.97;5081688;28;20042;-70
2021/12/08 11:46:17;;;;;;;4.88;1.25;;;;;;;8.48;66.99;99653.44;5087508;28;20335;-71
2021/12/08 11:49:08;;;;;;;4.80;1.35;;;;;;;8.25;67.17;99659.81;5082441;28;20031;-72
2021/12/08 11:52:13;;;;;;;5.78;1.30;;;;;;;8.05;68.99;99662.88;5085728;28;20030;-72
2021/12/08 11:54:47;;;;;;;6.45;1.50;;;;;;;7.86;69.70;99667.63;5083315;28;20016;-73
2021/12/08 11:57:25;;;;;;;6.32;2.10;;;;;;;7.80;72.53;99668.34;5081764;28;20059;-71
2021/12/08 12:00:18;;;;;;;7.15;1.52;;;;;;;7.95;70.36;99676.34;5085209;28;20739;-74
2021/12/08 12:02:55;;;;;;;6.63;1.50;;;;;;;7.94;71.00;99668.63;5075629;28;20071;-75
2021/12/08 12:05:26;;;;;;;10.27;1.90;;;;;;;7.86;70.65;99676.16;5082679;28;20114;-71
2021/12/08 12:07:52;;;;;;;5.35;1.33;;;;;;;7.78;69.63;99682.81;5082338;28;20107;-73
2021/12/08 12:10:22;;;;;;;6.82;1.50;;;;;;;7.72;72.19;99688.69;5085591;28;20063;-72
2021/12/08 12:12:47;;;;;;;5.05;1.48;;;;;;;7.73;71.27;99692.97;5083632;28;20111;-73
2021/12/08 12:15:17;;;;;;;7.90;1.33;;;;;;;7.54;70.42;99693.41;5085798;28;20111;-72
2021/12/08 12:17:44;;;;;;;6.05;1.33;;;;;;;7.58;70.70;99709.66;5080561;28;20031;-73
2021/12/08 12:20:16;;;;;;;5.55;1.23;;;;;;;7.46;71.13;99713.72;5082442;28;20020;-75
2021/12/08 12:22:52;;;;;;;6.30;1.55;;;;;;;7.45;71.31;99713.66;5085929;28;20389;-74
2021/12/08 12:25:39;;;;;;;5.57;1.42;;;;;;;7.48;72.49;99727.41;5082161;28;20116;-76
2021/12/08 12:28:14;;;;;;;4.55;1.10;;;;;;;7.46;72.69;99730.72;5082073;28;20147;-75
2021/12/08 12:30:51;;;;;;;4.15;1.27;;;;;;;7.41;72.46;99724.66;5084414;28;20474;-75
2021/12/08 12:33:22;;;;;;;6.38;1.67;;;;;;;7.51;72.14;99724.03;5078808;28;20513;-76